createdAt,value
2022-07-25T00:00:56.425Z,100851.64
2022-07-25T00:03:28.530Z,100856.30
2022-07-25T00:05:59.658Z,100853.10
2022-07-25T00:08:30.737Z,100843.73
2022-07-25T00:11:02.314Z,100840.86
2022-07-25T00:13:33.605Z,100839.80
2022-07-25T00:16:05.510Z,100831.19
2022-07-25T00:18:36.912Z,100830.00
2022-07-25T00:21:08.679Z,100838.17
2022-07-25T00:23:40.132Z,100838.43
2022-07-25T00:26:13.034Z,100837.48
2022-07-25T00:28:44.667Z,100837.10
2022-07-25T00:31:16.040Z,100831.58
2022-07-25T00:33:47.139Z,100831.89
2022-07-25T00:36:18.592Z,100824.69
2022-07-25T00:38:49.615Z,100829.58
2022-07-25T00:41:20.999Z,100830.61
2022-07-25T00:43:52.143Z,100824.27
2022-07-25T00:46:23.493Z,100814.05
2022-07-25T00:48:55.397Z,100820.76
2022-07-25T00:51:27.675Z,100818.75
2022-07-25T00:54:00.001Z,100815.08
2022-07-25T00:56:32.007Z,100825.72
2022-07-25T00:59:03.237Z,100825.20
2022-07-25T01:01:36.235Z,100824.25
2022-07-25T01:04:08.741Z,100814.42
2022-07-25T01:06:40.250Z,100813.48
2022-07-25T01:09:12.503Z,100815.20
2022-07-25T01:11:45.281Z,100811.98
2022-07-25T01:14:16.440Z,100805.02
2022-07-25T01:16:48.132Z,100807.89
2022-07-25T01:19:20.516Z,100809.72
2022-07-25T01:21:51.769Z,100804.62
2022-07-25T01:24:22.761Z,100805.05
2022-07-25T01:26:54.044Z,100807.83
2022-07-25T01:29:25.573Z,100809.30
2022-07-25T01:31:56.805Z,100810.19
2022-07-25T01:34:29.056Z,100802.81
2022-07-25T01:37:00.182Z,100807.31
2022-07-25T01:39:31.501Z,100795.77
2022-07-25T01:42:02.715Z,100790.66
2022-07-25T01:44:34.114Z,100793.23
2022-07-25T01:47:05.544Z,100790.92
2022-07-25T01:49:38.825Z,100804.46
2022-07-25T01:52:10.345Z,100798.54
2022-07-25T01:54:43.476Z,100797.23
2022-07-25T01:57:16.166Z,100791.69
2022-07-25T01:59:47.911Z,100801.00
2022-07-25T02:02:21.098Z,100788.22
2022-07-25T02:04:52.745Z,100793.17
2022-07-25T02:07:24.014Z,100785.09
2022-07-25T02:09:57.019Z,100785.62
2022-07-25T02:12:29.527Z,100772.67
2022-07-25T02:15:03.035Z,100778.92
2022-07-25T02:17:34.485Z,100776.31
2022-07-25T02:20:07.409Z,100781.55
2022-07-25T02:22:38.528Z,100786.16
2022-07-25T02:25:10.309Z,100780.60
2022-07-25T02:27:41.646Z,100780.08
2022-07-25T02:30:13.295Z,100778.49
2022-07-25T02:32:44.539Z,100785.87
2022-07-25T02:35:17.150Z,100783.45
2022-07-25T02:37:48.916Z,100796.75
2022-07-25T02:40:20.685Z,100793.61
2022-07-25T02:42:53.477Z,100792.56
2022-07-25T02:45:24.788Z,100781.99
2022-07-25T02:47:55.937Z,100785.87
2022-07-25T02:50:28.186Z,100792.56
2022-07-25T02:52:59.759Z,100786.31
2022-07-25T02:55:32.389Z,100785.38
2022-07-25T02:58:03.802Z,100783.79
2022-07-25T03:00:35.314Z,100779.55
2022-07-25T03:03:06.491Z,100772.42
2022-07-25T03:05:39.553Z,100770.94
2022-07-25T03:08:10.689Z,100778.33
2022-07-25T03:10:41.664Z,100780.08
2022-07-25T03:13:14.667Z,100772.61
2022-07-25T03:15:45.866Z,100777.47
2022-07-25T03:18:17.101Z,100774.33
2022-07-25T03:20:50.913Z,100765.73
2022-07-25T03:23:22.792Z,100785.02
2022-07-25T03:25:54.199Z,100778.16
2022-07-25T03:28:26.057Z,100779.45
2022-07-25T03:30:57.053Z,100772.61
2022-07-25T03:33:28.293Z,100775.88
2022-07-25T03:35:59.635Z,100781.38
2022-07-25T03:38:30.709Z,100780.62
2022-07-25T03:41:01.834Z,100774.41
2022-07-25T03:43:33.384Z,100774.22
2022-07-25T03:46:06.982Z,100771.10
2022-07-25T03:48:38.238Z,100768.58
2022-07-25T03:51:09.740Z,100760.55
2022-07-25T03:53:54.211Z,100761.24
2022-07-25T03:56:26.351Z,100759.83
2022-07-25T03:58:57.403Z,100754.95
2022-07-25T04:01:28.883Z,100755.45
2022-07-25T04:04:00.486Z,100751.42
2022-07-25T04:06:33.389Z,100752.70
2022-07-25T04:09:04.985Z,100752.42
2022-07-25T04:11:36.632Z,100751.63
2022-07-25T04:14:08.742Z,100748.25
2022-07-25T04:16:40.707Z,100759.77
2022-07-25T04:19:11.797Z,100760.75
2022-07-25T04:21:43.419Z,100759.22
2022-07-25T04:24:14.379Z,100761.52
2022-07-25T04:26:45.645Z,100762.50
2022-07-25T04:29:16.650Z,100767.12
2022-07-25T04:31:49.416Z,100767.98
2022-07-25T04:34:20.783Z,100752.09
2022-07-25T04:36:53.253Z,100754.58
2022-07-25T04:39:24.411Z,100753.11
2022-07-25T04:41:55.858Z,100747.53
2022-07-25T04:44:27.084Z,100744.59
2022-07-25T04:46:58.312Z,100738.64
2022-07-25T04:49:29.669Z,100747.73
2022-07-25T04:52:00.878Z,100742.82
2022-07-25T04:54:32.588Z,100735.73
2022-07-25T04:57:05.455Z,100728.07
2022-07-25T04:59:38.175Z,100734.14
2022-07-25T05:02:10.555Z,100720.09
2022-07-25T05:04:45.364Z,100725.94
2022-07-25T05:07:14.853Z,100709.41
2022-07-25T05:09:46.397Z,100714.81
2022-07-25T05:12:19.122Z,100709.58
2022-07-25T05:14:50.491Z,100712.17
2022-07-25T05:17:21.615Z,100710.36
2022-07-25T05:19:52.859Z,100708.05
2022-07-25T05:22:28.322Z,100707.36
2022-07-25T05:24:57.102Z,100701.23
2022-07-25T05:27:28.737Z,100711.00
2022-07-25T05:30:00.371Z,100700.48
2022-07-25T05:32:31.705Z,100685.42
2022-07-25T05:35:03.021Z,100688.16
2022-07-25T05:37:33.954Z,100677.59
2022-07-25T05:40:07.223Z,100679.84
2022-07-25T05:42:40.090Z,100678.34
2022-07-25T05:45:11.919Z,100676.52
2022-07-25T05:47:43.179Z,100687.02
2022-07-25T05:50:14.173Z,100684.34
2022-07-25T05:52:45.465Z,100681.13
2022-07-25T05:55:18.146Z,100664.13
2022-07-25T05:57:49.435Z,100666.62
2022-07-25T06:00:20.772Z,100667.45
2022-07-25T06:02:52.231Z,100655.34
2022-07-25T06:05:23.404Z,100651.28
2022-07-25T06:07:54.578Z,100642.85
2022-07-25T06:10:26.402Z,100648.46
2022-07-25T06:12:57.851Z,100654.48
2022-07-25T06:15:29.026Z,100644.59
2022-07-25T06:18:00.190Z,100645.44
2022-07-25T06:20:31.714Z,100634.47
2022-07-25T06:23:04.375Z,100628.80
2022-07-25T06:25:36.688Z,100624.86
2022-07-25T06:28:08.376Z,100623.59
2022-07-25T06:30:41.655Z,100610.52
2022-07-25T06:33:13.759Z,100616.05
2022-07-25T06:35:44.889Z,100614.62
2022-07-25T06:38:17.506Z,100602.70
2022-07-25T06:40:48.872Z,100604.41
2022-07-25T06:43:20.013Z,100602.70
2022-07-25T06:45:51.436Z,100602.39
2022-07-25T06:48:24.141Z,100599.06
2022-07-25T06:51:04.023Z,100599.77
2022-07-25T06:53:38.208Z,100589.50
2022-07-25T06:56:11.320Z,100584.55
2022-07-25T06:58:43.066Z,100584.85
2022-07-25T07:01:14.618Z,100583.25
2022-07-25T07:03:46.173Z,100576.37
2022-07-25T07:06:17.862Z,100580.80
2022-07-25T07:08:49.145Z,100576.22
2022-07-25T07:11:20.243Z,100576.91
2022-07-25T07:13:52.963Z,100572.63
2022-07-25T07:16:24.107Z,100560.95
2022-07-25T07:18:58.481Z,100561.47
2022-07-25T07:21:31.357Z,100555.52
2022-07-25T07:24:03.937Z,100552.48
2022-07-25T07:26:53.937Z,100546.06
2022-07-25T07:29:26.765Z,100541.45
2022-07-25T07:32:09.478Z,100540.66
2022-07-25T07:37:42.953Z,100533.80
2022-07-25T07:40:17.172Z,100531.14
2022-07-25T07:42:45.633Z,100535.37
2022-07-25T07:45:26.404Z,100528.98
2022-07-25T07:47:57.774Z,100539.21
2022-07-25T07:50:29.918Z,100535.91
2022-07-25T07:53:02.809Z,100541.16
2022-07-25T07:55:48.150Z,100546.28
2022-07-25T07:58:20.905Z,100538.11
2022-07-25T08:00:52.572Z,100532.37
2022-07-25T08:03:25.346Z,100534.41
2022-07-25T08:05:56.750Z,100525.59
2022-07-25T08:08:31.372Z,100523.66
2022-07-25T08:11:02.301Z,100517.25
2022-07-25T08:13:37.276Z,100513.61
2022-07-25T08:16:09.005Z,100515.92
2022-07-25T08:18:40.303Z,100505.03
2022-07-25T08:21:13.090Z,100504.23
2022-07-25T08:23:47.260Z,100502.66
2022-07-25T08:26:18.500Z,100497.19
2022-07-25T08:28:55.651Z,100501.66
2022-07-25T08:31:22.529Z,100504.55
2022-07-25T08:33:53.850Z,100506.67
2022-07-25T08:36:24.987Z,100509.99
2022-07-25T08:38:56.267Z,100499.50
2022-07-25T08:41:27.712Z,100507.93
2022-07-25T08:44:01.652Z,100499.86
2022-07-25T08:46:33.096Z,100504.14
2022-07-25T08:49:05.796Z,100512.23
2022-07-25T08:51:36.973Z,100507.59
2022-07-25T08:54:08.766Z,100496.08
2022-07-25T08:56:40.537Z,100494.23
2022-07-25T08:59:11.783Z,100495.06
2022-07-25T09:01:45.601Z,100486.00
2022-07-25T09:04:19.304Z,100477.27
2022-07-25T09:06:54.020Z,100484.14
2022-07-25T09:09:37.075Z,100481.02
2022-07-25T09:12:11.916Z,100487.72
2022-07-25T09:14:44.598Z,100484.76
2022-07-25T09:17:22.693Z,100490.80
2022-07-25T09:19:59.006Z,100478.45
2022-07-25T09:22:33.476Z,100485.62
2022-07-25T09:25:07.202Z,100482.70
2022-07-25T09:27:38.371Z,100480.30
2022-07-25T09:30:17.178Z,100473.95
2022-07-25T09:32:49.864Z,100474.20
2022-07-25T09:35:26.029Z,100480.84
2022-07-25T09:38:16.156Z,100472.46
2022-07-25T09:41:03.990Z,100482.09
2022-07-25T09:43:43.734Z,100480.08
2022-07-25T09:46:15.367Z,100475.53
2022-07-25T09:48:48.056Z,100469.55
2022-07-25T09:51:19.220Z,100477.30
2022-07-25T09:53:50.525Z,100465.44
2022-07-25T09:56:32.186Z,100458.91
2022-07-25T09:59:05.372Z,100452.55
2022-07-25T10:01:55.099Z,100457.17
2022-07-25T10:04:35.113Z,100447.44
2022-07-25T10:07:12.641Z,100449.92
2022-07-25T10:09:52.684Z,100444.81
2022-07-25T10:12:25.904Z,100442.70
2022-07-25T10:15:13.187Z,100434.37
2022-07-25T10:17:46.197Z,100440.27
2022-07-25T10:20:23.744Z,100432.59
2022-07-25T10:22:57.294Z,100429.73
2022-07-25T10:25:28.917Z,100415.52
2022-07-25T10:28:06.509Z,100422.34
2022-07-25T10:30:41.397Z,100418.15
2022-07-25T10:33:21.897Z,100403.26
2022-07-25T10:35:53.374Z,100396.23
2022-07-25T10:38:30.109Z,100405.12
2022-07-25T10:41:03.866Z,100391.83
2022-07-25T10:43:39.929Z,100401.64
2022-07-25T10:46:16.673Z,100401.95
2022-07-25T10:48:50.187Z,100383.91
2022-07-25T10:51:24.161Z,100380.84
2022-07-25T10:53:55.675Z,100382.44
2022-07-25T10:56:29.895Z,100379.09
2022-07-25T10:59:03.571Z,100354.19
2022-07-25T11:01:40.031Z,100354.19
2022-07-25T11:04:18.726Z,100369.27
2022-07-25T11:06:49.977Z,100371.34
2022-07-25T11:09:28.286Z,100364.36
2022-07-25T11:12:00.876Z,100363.43
2022-07-25T11:14:42.285Z,100357.62
2022-07-25T11:17:21.238Z,100362.27
2022-07-25T11:20:04.381Z,100348.77
2022-07-25T11:22:38.068Z,100347.16
2022-07-25T11:25:16.010Z,100346.11
2022-07-25T11:27:49.077Z,100337.33
2022-07-25T11:30:21.348Z,100327.67
2022-07-25T11:32:55.202Z,100326.62
2022-07-25T11:35:33.067Z,100325.41
2022-07-25T11:38:04.825Z,100313.53
2022-07-25T11:40:40.308Z,100306.25
2022-07-25T11:43:14.548Z,100313.02
2022-07-25T11:45:45.647Z,100305.81
2022-07-25T11:48:17.232Z,100303.05
2022-07-25T11:50:48.731Z,100291.05
2022-07-25T11:53:20.350Z,100294.36
2022-07-25T11:55:51.941Z,100291.45
2022-07-25T11:58:25.020Z,100291.67
2022-07-25T12:00:56.440Z,100282.02
2022-07-25T12:03:27.848Z,100281.88
2022-07-25T12:06:27.182Z,100268.27
2022-07-25T12:09:19.405Z,100276.12
2022-07-25T12:12:03.697Z,100261.22
2022-07-25T12:14:57.218Z,100252.38
2022-07-25T12:17:28.488Z,100248.98
2022-07-25T12:19:59.673Z,100241.54
2022-07-25T12:22:32.476Z,100242.62
2022-07-25T12:25:05.267Z,100246.23
2022-07-25T12:27:36.607Z,100236.88
2022-07-25T12:30:09.798Z,100237.31
2022-07-25T12:32:41.333Z,100232.41
2022-07-25T12:35:14.828Z,100227.92
2022-07-25T12:37:46.195Z,100221.55
2022-07-25T12:40:18.158Z,100214.86
2022-07-25T12:42:50.285Z,100223.77
2022-07-25T12:45:22.257Z,100205.92
2022-07-25T12:47:56.670Z,100207.94
2022-07-25T12:50:30.039Z,100206.76
2022-07-25T12:53:01.224Z,100205.59
2022-07-25T12:55:32.807Z,100207.75
2022-07-25T12:58:04.682Z,100204.50
2022-07-25T13:00:36.156Z,100194.06
2022-07-25T13:03:17.505Z,100185.11
2022-07-25T13:05:53.662Z,100185.83
2022-07-25T13:08:24.728Z,100188.93
2022-07-25T13:10:57.461Z,100185.17
2022-07-25T13:13:29.167Z,100172.84
2022-07-25T13:16:02.636Z,100167.89
2022-07-25T13:18:36.265Z,100167.92
2022-07-25T13:21:08.547Z,100166.05
2022-07-25T13:23:39.994Z,100158.61
2022-07-25T13:26:12.093Z,100152.02
2022-07-25T13:28:43.099Z,100155.71
2022-07-25T13:31:14.551Z,100152.21
2022-07-25T13:33:55.104Z,100148.20
2022-07-25T13:36:29.982Z,100151.91
2022-07-25T13:39:08.434Z,100138.99
2022-07-25T13:41:51.846Z,100145.40
2022-07-25T13:44:27.858Z,100138.19
2022-07-25T13:47:09.986Z,100121.14
2022-07-25T13:49:41.794Z,100119.47
2022-07-25T13:52:14.359Z,100114.77
2022-07-25T13:54:47.265Z,100110.11
2022-07-25T13:57:25.896Z,100110.26
2022-07-25T13:59:59.201Z,100106.97
2022-07-25T14:02:31.602Z,100106.70
2022-07-25T14:05:04.331Z,100093.69
2022-07-25T14:07:37.259Z,100085.30
2022-07-25T14:10:09.583Z,100084.68
2022-07-25T14:12:41.166Z,100083.61
2022-07-25T14:15:13.017Z,100083.37
2022-07-25T14:17:44.300Z,100083.51
2022-07-25T14:20:15.498Z,100086.09
2022-07-25T14:22:46.743Z,100083.42
2022-07-25T14:25:18.311Z,100073.83
2022-07-25T14:27:49.697Z,100067.88
2022-07-25T14:30:20.997Z,100066.16
2022-07-25T14:32:52.249Z,100061.23
2022-07-25T14:35:26.393Z,100058.91
2022-07-25T14:38:27.012Z,100057.52
2022-07-25T14:40:58.950Z,100057.94
2022-07-25T14:43:30.389Z,100046.66
2022-07-25T14:46:01.390Z,100038.17
2022-07-25T14:48:33.134Z,100029.47
2022-07-25T14:51:04.612Z,100023.05
2022-07-25T14:53:36.944Z,100024.58
2022-07-25T14:56:08.895Z,100013.05
2022-07-25T14:58:41.036Z,100016.22
2022-07-25T15:01:12.549Z,100011.76
2022-07-25T15:03:43.979Z,100001.17
2022-07-25T15:06:15.348Z,99993.30
2022-07-25T15:08:46.907Z,99999.70
2022-07-25T15:11:18.301Z,99987.23
2022-07-25T15:13:50.054Z,99983.36
2022-07-25T15:16:21.585Z,99978.25
2022-07-25T15:19:15.031Z,99986.13
2022-07-25T15:21:26.044Z,99975.14
2022-07-25T15:23:57.937Z,99976.55
2022-07-25T15:26:29.355Z,99975.76
2022-07-25T15:29:00.615Z,99985.02
2022-07-25T15:31:32.080Z,99970.97
2022-07-25T15:34:03.605Z,99967.92
2022-07-25T15:36:35.350Z,99962.44
2022-07-25T15:39:07.019Z,99966.78
2022-07-25T15:41:38.770Z,99968.89
2022-07-25T15:44:09.987Z,99963.89
2022-07-25T15:46:41.812Z,99965.98
2022-07-25T15:49:13.664Z,99969.41
2022-07-25T15:51:45.114Z,99959.46
2022-07-25T15:54:17.716Z,99962.15
2022-07-25T15:56:49.216Z,99946.80
2022-07-25T15:59:20.562Z,99952.58
2022-07-25T16:01:51.971Z,99955.83
2022-07-25T16:04:23.600Z,99951.60
2022-07-25T16:06:55.077Z,99947.35
2022-07-25T16:09:26.271Z,99941.82
2022-07-25T16:11:57.755Z,99940.55
2022-07-25T16:14:29.111Z,99940.13
2022-07-25T16:17:01.455Z,99943.54
2022-07-25T16:19:34.313Z,99935.47
2022-07-25T16:22:05.737Z,99934.81
2022-07-25T16:24:38.181Z,99925.73
2022-07-25T16:27:10.746Z,99922.96
2022-07-25T16:29:42.065Z,99916.58
2022-07-25T16:32:13.682Z,99917.83
2022-07-25T16:34:45.524Z,99908.53
2022-07-25T16:37:18.180Z,99911.93
2022-07-25T16:39:49.755Z,99918.45
2022-07-25T16:42:21.188Z,99910.83
2022-07-25T16:44:52.721Z,99901.31
2022-07-25T16:47:24.073Z,99908.28
2022-07-25T16:49:55.391Z,99900.22
2022-07-25T16:52:26.931Z,99889.65
2022-07-25T16:55:00.123Z,99887.93
2022-07-25T16:57:31.252Z,99889.23
2022-07-25T17:00:02.741Z,99873.48
2022-07-25T17:02:34.092Z,99876.03
2022-07-25T17:05:05.831Z,99868.83
2022-07-25T17:07:38.540Z,99876.45
2022-07-25T17:10:10.498Z,99862.88
2022-07-25T17:12:43.108Z,99860.74
2022-07-25T17:15:14.451Z,99861.99
2022-07-25T17:17:45.692Z,99854.16
2022-07-25T17:20:18.624Z,99852.88
2022-07-25T17:22:49.800Z,99841.66
2022-07-25T17:25:21.538Z,99844.41
2022-07-25T17:28:00.366Z,99845.42
2022-07-25T17:30:31.471Z,99846.76
2022-07-25T17:33:02.774Z,99845.68
2022-07-25T17:35:34.421Z,99845.62
2022-07-25T17:38:05.730Z,99848.81
2022-07-25T17:40:37.425Z,99841.16
2022-07-25T17:43:08.382Z,99839.48
2022-07-25T17:45:39.933Z,99841.61
2022-07-25T17:48:12.643Z,99837.30
2022-07-25T17:50:46.261Z,99838.19
2022-07-25T17:53:18.803Z,99836.89
2022-07-25T17:55:54.939Z,99836.69
2022-07-25T17:58:26.283Z,99824.33
2022-07-25T18:01:01.418Z,99831.77
2022-07-25T18:03:31.883Z,99831.34
2022-07-25T18:06:03.444Z,99833.02
2022-07-25T18:08:36.586Z,99828.73
2022-07-25T18:11:08.032Z,99823.59
2022-07-25T18:13:39.144Z,99829.94
2022-07-25T18:16:11.332Z,99814.74
2022-07-25T18:18:42.647Z,99808.56
2022-07-25T18:21:13.939Z,99804.36
2022-07-25T18:23:47.305Z,99807.88
2022-07-25T18:26:27.191Z,99787.09
2022-07-25T18:29:11.544Z,99801.50
2022-07-25T18:31:43.083Z,99801.66
2022-07-25T18:34:14.481Z,99789.93
2022-07-25T18:36:45.577Z,99797.20
2022-07-25T18:39:16.812Z,99810.42
2022-07-25T18:41:48.131Z,99799.30
2022-07-25T18:44:19.678Z,99797.58
2022-07-25T18:46:51.091Z,99804.41
2022-07-25T18:49:23.329Z,99798.17
2022-07-25T18:51:54.921Z,99798.11
2022-07-25T18:54:26.602Z,99799.02
2022-07-25T18:56:57.874Z,99803.21
2022-07-25T18:59:29.360Z,99807.77
2022-07-25T19:02:02.512Z,99811.46
2022-07-25T19:04:35.118Z,99813.30
2022-07-25T19:07:06.499Z,99806.69
2022-07-25T19:09:37.988Z,99808.28
2022-07-25T19:12:10.074Z,99803.25
2022-07-25T19:14:42.363Z,99806.36
2022-07-25T19:17:14.440Z,99805.98
2022-07-25T19:19:45.743Z,99810.73
2022-07-25T19:22:16.948Z,99806.78
2022-07-25T19:24:49.723Z,99813.11
2022-07-25T19:27:24.596Z,99818.44
2022-07-25T19:29:55.730Z,99816.50
2022-07-25T19:32:27.427Z,99823.73
2022-07-25T19:34:59.480Z,99823.42
2022-07-25T19:37:31.199Z,99820.20
2022-07-25T19:40:02.620Z,99815.12
2022-07-25T19:42:34.277Z,99822.62
2022-07-25T19:45:05.923Z,99813.80
2022-07-25T19:47:37.451Z,99830.31
2022-07-25T19:50:09.509Z,99820.27
2022-07-25T19:52:42.460Z,99825.73
2022-07-25T19:55:18.973Z,99825.91
2022-07-25T19:57:53.540Z,99830.69
2022-07-25T20:00:26.602Z,99833.95
2022-07-25T20:02:58.374Z,99828.48
2022-07-25T20:05:29.670Z,99823.89
2022-07-25T20:08:00.570Z,99826.72
2022-07-25T20:10:31.746Z,99824.17
2022-07-25T20:13:03.451Z,99823.20
2022-07-25T20:15:35.762Z,99815.16
2022-07-25T20:18:08.547Z,99819.27
2022-07-25T20:20:40.002Z,99815.66
2022-07-25T20:23:12.131Z,99820.78
2022-07-25T20:25:43.423Z,99808.00
2022-07-25T20:28:14.992Z,99815.16
2022-07-25T20:30:46.454Z,99804.59
2022-07-25T20:33:17.837Z,99798.77
2022-07-25T20:35:51.627Z,99804.05
2022-07-25T20:38:23.661Z,99794.68
2022-07-25T20:40:55.983Z,99790.05
2022-07-25T20:43:27.760Z,99790.39
2022-07-25T20:45:59.579Z,99788.33
2022-07-25T20:48:32.488Z,99786.44
2022-07-25T20:51:04.205Z,99790.55
2022-07-25T20:53:36.128Z,99787.16
2022-07-25T20:56:07.847Z,99783.05
2022-07-25T20:58:39.640Z,99776.91
2022-07-25T21:01:11.386Z,99772.13
2022-07-25T21:03:42.974Z,99770.59
2022-07-25T21:06:14.285Z,99780.82
2022-07-25T21:08:46.992Z,99771.61
2022-07-25T21:11:18.506Z,99778.91
2022-07-25T21:13:49.787Z,99771.77
2022-07-25T21:16:21.221Z,99768.49
2022-07-25T21:18:52.544Z,99774.33
2022-07-25T21:21:24.176Z,99774.67
2022-07-25T21:23:55.819Z,99760.52
2022-07-25T21:26:26.920Z,99753.33
2022-07-25T21:28:58.409Z,99751.65
2022-07-25T21:31:30.366Z,99751.81
2022-07-25T21:34:03.110Z,99748.27
2022-07-25T21:36:34.807Z,99741.91
2022-07-25T21:39:06.650Z,99741.95
2022-07-25T21:41:38.263Z,99733.92
2022-07-25T21:44:09.636Z,99730.88
2022-07-25T21:46:41.014Z,99726.58
2022-07-25T21:49:41.037Z,99725.91
2022-07-25T21:52:00.080Z,99727.73
2022-07-25T21:54:30.952Z,99722.83
2022-07-25T21:57:02.625Z,99716.65
2022-07-25T21:59:33.983Z,99711.42
2022-07-25T22:05:07.951Z,99698.61
2022-07-25T22:07:39.194Z,99696.06
2022-07-25T22:10:12.347Z,99700.84
2022-07-25T22:12:44.144Z,99703.56
2022-07-25T22:15:17.293Z,99700.84
2022-07-25T22:17:50.187Z,99699.32
2022-07-25T22:20:22.553Z,99700.69
2022-07-25T22:22:53.980Z,99693.70
2022-07-25T22:25:25.599Z,99698.78
2022-07-25T22:27:57.865Z,99698.83
2022-07-25T22:30:29.412Z,99696.41
2022-07-25T22:33:01.339Z,99709.03
2022-07-25T22:35:33.163Z,99697.44
2022-07-25T22:38:04.857Z,99693.84
2022-07-25T22:40:36.437Z,99693.53
2022-07-25T22:43:07.822Z,99699.16
2022-07-25T22:45:42.897Z,99691.45
2022-07-25T22:48:11.959Z,99685.86
2022-07-25T22:50:44.664Z,99683.80
2022-07-25T22:53:16.549Z,99696.58
2022-07-25T22:55:47.937Z,99696.95
2022-07-25T22:58:19.894Z,99695.39
2022-07-25T23:00:51.754Z,99696.77
2022-07-25T23:03:23.787Z,99688.95
2022-07-25T23:05:55.370Z,99687.75
2022-07-25T23:08:29.205Z,99691.51
2022-07-25T23:11:00.596Z,99685.88
2022-07-25T23:13:33.314Z,99667.12
2022-07-25T23:16:05.777Z,99666.78
2022-07-25T23:18:40.574Z,99662.69
2022-07-25T23:21:13.251Z,99655.52
2022-07-25T23:23:44.864Z,99651.95
2022-07-25T23:26:16.474Z,99645.75
2022-07-25T23:28:48.543Z,99646.45
2022-07-25T23:31:21.391Z,99646.95
2022-07-25T23:33:53.030Z,99637.06
2022-07-25T23:36:24.689Z,99631.44
2022-07-25T23:38:56.389Z,99635.33
2022-07-25T23:41:27.913Z,99640.78
2022-07-25T23:44:00.624Z,99630.19
2022-07-25T23:46:33.412Z,99622.74
2022-07-25T23:49:07.816Z,99614.00
2022-07-25T23:51:39.856Z,99610.49
2022-07-25T23:54:11.181Z,99606.53
2022-07-25T23:56:42.424Z,99609.80
2022-07-25T23:59:13.717Z,99613.88
